Time;durP1;ratioP1;P1;durP2;ratioP2;P2;SDS_P1;SDS_P2;PMS_P1;PMS_P2;Temp;Humidity;BMP_temperature;BMP_pressure;BME280_temperature;BME280_humidity;BME280_pressure;Samples;Min_cycle;Max_cycle;Signal;HPM_P1;HPM_P2
2024/02/28 00:04:52;;;;;;;46.30;25.90;;;;;;;9.39;100.00;98948.85;272693;1272;22207;-86
2024/02/28 00:10:57;;;;;;;49.20;28.30;;;;;;;9.31;100.00;98955.36;271472;1272;22562;-86
2024/02/28 00:16:58;;;;;;;60.30;31.70;;;;;;;9.29;100.00;98962.13;271830;1270;22505;-85
2024/02/28 00:23:00;;;;;;;49.80;30.10;;;;;;;9.28;100.00;98962.49;272535;1273;22641;-86
2024/02/28 00:29:28;;;;;;;62.90;33.00;;;;;;;9.26;100.00;98962.94;270858;1273;22244;-85
2024/02/28 00:35:35;;;;;;;51.30;30.20;;;;;;;9.23;100.00;98966.10;271804;1273;22557;-86
2024/02/28 00:41:36;;;;;;;32.50;19.30;;;;;;;9.15;100.00;98964.88;271384;1273;21812;-86
2024/02/28 00:47:40;;;;;;;72.60;35.70;;;;;;;9.12;100.00;98964.27;271764;1272;24092;-86
2024/02/28 00:53:42;;;;;;;69.10;36.80;;;;;;;9.07;100.00;98960.52;271253;1272;22474;-86
2024/02/28 00:59:44;;;;;;;61.40;34.50;;;;;;;9.03;100.00;98967.48;272427;1273;22532;-86
2024/02/28 01:05:45;;;;;;;66.50;33.80;;;;;;;8.97;100.00;98974.64;272442;1270;22181;-87
2024/02/28 01:12:30;;;;;;;66.30;35.10;;;;;;;8.87;100.00;98977.27;272358;1273;22475;-86
2024/02/28 01:18:52;;;;;;;60.10;31.00;;;;;;;8.78;100.00;98980.15;272468;1272;22395;-87
2024/02/28 01:25:17;;;;;;;44.10;26.30;;;;;;;8.72;100.00;98979.25;272383;1273;22262;-86
2024/02/28 01:31:26;;;;;;;49.40;29.30;;;;;;;8.68;100.00;98976.14;272441;1272;22485;-87
2024/02/28 01:37:53;;;;;;;44.70;25.40;;;;;;;8.66;100.00;98978.91;272752;1272;22885;-86
2024/02/28 01:43:57;;;;;;;47.60;28.40;;;;;;;8.57;100.00;98978.20;272586;1272;23011;-86
2024/02/28 01:49:59;;;;;;;81.90;37.10;;;;;;;8.53;100.00;98972.98;270778;1272;24184;-86
2024/02/28 01:56:01;;;;;;;61.10;30.80;;;;;;;8.46;100.00;98967.39;270285;1272;22452;-86
2024/02/28 02:02:02;;;;;;;54.60;29.70;;;;;;;8.42;100.00;98967.88;272317;1272;22432;-86
2024/02/28 02:08:03;;;;;;;48.70;26.50;;;;;;;8.38;100.00;98973.48;272514;1272;23653;-85
2024/02/28 02:14:04;;;;;;;52.10;29.00;;;;;;;8.38;100.00;98969.27;272299;1272;22295;-86
2024/02/28 02:20:08;;;;;;;67.40;35.50;;;;;;;8.35;100.00;98971.80;272456;1272;22224;-86
2024/02/28 02:26:11;;;;;;;65.30;36.60;;;;;;;8.36;100.00;98967.52;272377;1272;22284;-85
2024/02/28 02:32:12;;;;;;;69.40;37.40;;;;;;;8.33;100.00;98966.83;272258;1266;103421;-93
2024/02/28 02:38:18;;;;;;;67.20;38.30;;;;;;;8.30;100.00;98972.15;269504;1261;22549;-91
2024/02/28 02:44:21;;;;;;;66.00;36.70;;;;;;;8.30;100.00;98966.06;269035;1273;23469;-93
2024/02/28 02:50:26;;;;;;;58.30;34.60;;;;;;;8.25;100.00;98962.40;266290;1275;3748536;-92
2024/02/28 02:56:33;;;;;;;68.90;35.40;;;;;;;8.18;100.00;98965.42;268979;1275;22515;-93
2024/02/28 03:02:39;;;;;;;68.20;37.00;;;;;;;8.08;100.00;98961.08;269005;1273;22585;-92
2024/02/28 03:08:49;;;;;;;65.80;37.60;;;;;;;8.04;100.00;98968.55;269278;1273;23618;-92
2024/02/28 03:14:52;;;;;;;67.90;37.10;;;;;;;8.03;100.00;98971.34;268823;1274;23806;-92
2024/02/28 03:20:58;;;;;;;68.00;38.00;;;;;;;8.01;100.00;98970.21;269111;1274;22644;-92
2024/02/28 03:27:02;;;;;;;80.10;39.60;;;;;;;7.98;100.00;98974.13;269169;1274;22593;-93
2024/02/28 03:33:26;;;;;;;65.90;38.20;;;;;;;7.98;100.00;98975.84;270980;1274;23903;-92
2024/02/28 03:40:30;;;;;;;57.50;33.40;;;;;;;8.00;100.00;98979.30;269579;1274;23654;-92
2024/02/28 03:47:01;;;;;;;59.30;30.70;;;;;;;7.99;100.00;98988.95;269644;1273;24218;-92
2024/02/28 03:53:06;;;;;;;63.10;34.00;;;;;;;7.99;100.00;98994.09;268918;1273;22575;-91
2024/02/28 03:59:12;;;;;;;64.40;36.40;;;;;;;8.01;100.00;99000.98;269233;1273;23240;-93
2024/02/28 04:05:17;;;;;;;77.30;41.90;;;;;;;8.05;100.00;99005.64;268880;1274;22833;-92
2024/02/28 04:11:23;;;;;;;75.60;40.70;;;;;;;8.06;100.00;99002.33;269328;1274;22555;-93
2024/02/28 04:17:26;;;;;;;75.40;43.00;;;;;;;8.07;100.00;99003.98;269649;1273;23428;-92
2024/02/28 04:23:41;;;;;;;80.90;44.60;;;;;;;8.07;100.00;99000.23;270088;1270;22539;-93
2024/02/28 04:29:48;;;;;;;82.50;42.90;;;;;;;8.04;100.00;98997.84;269630;1274;22687;-92
2024/02/28 04:36:01;;;;;;;108.30;55.10;;;;;;;8.02;100.00;98998.98;269547;1274;25104;-92
2024/02/28 04:42:18;;;;;;;72.10;40.10;;;;;;;8.01;100.00;98995.98;269062;1274;27706;-92
2024/02/28 04:48:22;;;;;;;74.60;39.00;;;;;;;8.03;100.00;98997.20;269738;1274;23262;-92
2024/02/28 04:54:26;;;;;;;73.00;38.80;;;;;;;8.08;100.00;99000.65;269593;1273;22187;-92
2024/02/28 05:00:31;;;;;;;63.40;36.70;;;;;;;8.12;100.00;99001.52;269534;1273;23875;-92
2024/02/28 05:06:39;;;;;;;59.60;36.70;;;;;;;8.07;100.00;99005.77;269146;1274;22695;-92
2024/02/28 05:12:44;;;;;;;66.20;37.70;;;;;;;8.04;100.00;99011.09;269211;1275;22546;-92
2024/02/28 05:18:50;;;;;;;61.60;35.40;;;;;;;8.03;100.00;99019.95;269011;1273;22564;-93
2024/02/28 05:24:54;;;;;;;62.40;36.50;;;;;;;8.01;100.00;99025.58;268864;1274;22563;-92
2024/02/28 05:30:59;;;;;;;62.30;33.60;;;;;;;7.99;100.00;99033.48;268887;1274;22546;-93
2024/02/28 05:37:04;;;;;;;64.60;36.70;;;;;;;7.98;100.00;99038.30;268702;1274;22584;-93
2024/02/28 05:43:15;;;;;;;66.50;38.00;;;;;;;7.98;100.00;99039.23;268923;1273;22608;-91
2024/02/28 05:49:20;;;;;;;63.70;35.90;;;;;;;7.99;100.00;99040.88;268857;1274;23895;-92
2024/02/28 06:02:18;;;;;;;62.10;35.80;;;;;;;8.03;100.00;99058.97;262432;1305;545517;-92
2024/02/28 06:08:24;;;;;;;62.70;35.60;;;;;;;8.00;100.00;99059.52;269685;1272;22507;-92
2024/02/28 06:15:37;;;;;;;;;;;;;;;;;;;;;
2024/02/28 06:30:16;;;;;;;;;;;;;;;;;;;;;
2024/02/28 06:44:56;;;;;;;;;;;;;;;;;;;;;
2024/02/28 06:52:20;;;;;;;;;;;;;;;;;;;;;
2024/02/28 07:31:51;;;;;;;;;;;;;;;;;;;;;
2024/02/28 08:09:29;;;;;;;78.80;45.00;;;;;;;9.83;100.00;99104.07;262387;1305;545308;-90
2024/02/28 08:15:59;;;;;;;74.70;42.40;;;;;;;9.96;100.00;99101.14;263242;1305;544949;-91
2024/02/28 08:22:05;;;;;;;68.90;38.60;;;;;;;10.02;100.00;99110.92;268887;1280;22602;-91
2024/02/28 08:28:24;;;;;;;75.60;42.20;;;;;;;10.08;100.00;99110.00;268389;1278;209774;-91
2024/02/28 08:35:03;;;;;;;71.90;41.20;;;;;;;10.13;100.00;99120.09;269216;1277;22536;-90
2024/02/28 08:41:34;;;;;;;67.30;41.30;;;;;;;10.21;100.00;99124.45;268654;1278;24260;-92
2024/02/28 08:47:48;;;;;;;68.40;40.20;;;;;;;10.32;100.00;99124.36;268561;1277;22629;-92
2024/02/28 08:54:00;;;;;;;61.00;38.60;;;;;;;10.40;100.00;99128.94;268147;1277;22564;-91
2024/02/28 09:00:08;;;;;;;64.80;39.80;;;;;;;10.45;100.00;99123.53;268382;1278;22539;-92
2024/02/28 09:06:14;;;;;;;92.50;43.60;;;;;;;10.49;100.00;99131.09;269177;1277;22519;-91
2024/02/28 09:12:16;;;;;;;67.00;37.60;;;;;;;10.56;100.00;99127.43;272616;1270;22340;-92
2024/02/28 09:18:20;;;;;;;64.90;35.70;;;;;;;10.66;100.00;99131.77;272534;1270;22233;-92
2024/02/28 09:24:27;;;;;;;63.90;33.90;;;;;;;10.77;100.00;99133.33;272462;1270;22429;-90
2024/02/28 09:30:39;;;;;;;61.20;34.70;;;;;;;10.87;100.00;99128.77;272739;1270;22319;-91
2024/02/28 09:36:45;;;;;;;53.40;32.60;;;;;;;10.99;100.00;99136.19;272463;1269;22344;-92
2024/02/28 09:42:57;;;;;;;55.10;32.20;;;;;;;11.13;100.00;99136.81;272533;1269;23201;-91
2024/02/28 09:49:23;;;;;;;57.10;32.70;;;;;;;11.24;100.00;99138.50;270711;1269;22584;-91
2024/02/28 09:55:28;;;;;;;65.10;35.40;;;;;;;11.37;100.00;99136.90;269160;1263;23911;-92
2024/02/28 10:01:40;;;;;;;68.50;38.30;;;;;;;11.50;100.00;99144.02;269438;1270;22628;-91
2024/02/28 10:07:47;;;;;;;61.80;36.80;;;;;;;11.62;100.00;99147.91;270544;1267;23917;-91
2024/02/28 10:13:52;;;;;;;58.40;36.30;;;;;;;11.78;100.00;99158.16;270606;1266;22621;-92
2024/02/28 10:19:59;;;;;;;68.20;38.10;;;;;;;11.92;100.00;99165.10;270589;1266;23757;-91
2024/02/28 10:26:02;;;;;;;70.60;37.00;;;;;;;12.03;100.00;99168.02;273026;1266;23331;-91
2024/02/28 10:32:15;;;;;;;60.10;35.00;;;;;;;12.06;100.00;99167.02;272935;1267;23037;-92
2024/02/28 10:38:17;;;;;;;61.20;36.00;;;;;;;12.15;100.00;99165.05;273218;1250;22600;-92
2024/02/28 10:44:20;;;;;;;61.20;35.50;;;;;;;12.26;100.00;99158.86;273120;1268;22394;-92
2024/02/28 10:50:23;;;;;;;55.90;33.50;;;;;;;12.32;100.00;99161.02;270731;1266;22698;-92
2024/02/28 10:56:30;;;;;;;63.50;34.20;;;;;;;12.42;100.00;99162.73;270313;1266;22557;-91
2024/02/28 11:02:49;;;;;;;62.50;34.60;;;;;;;12.51;100.00;99167.97;270311;1267;22615;-92
2024/02/28 11:09:00;;;;;;;60.70;35.30;;;;;;;12.61;100.00;99162.13;270473;1267;22497;-91
2024/02/28 11:15:06;;;;;;;62.00;35.10;;;;;;;12.76;100.00;99164.17;273304;1267;23911;-91
2024/02/28 11:21:28;;;;;;;66.40;35.00;;;;;;;12.90;100.00;99163.38;271286;1266;22542;-90
2024/02/28 11:27:34;;;;;;;59.60;33.30;;;;;;;13.01;100.00;99160.86;270167;1267;22566;-91
2024/02/28 11:33:38;;;;;;;65.50;31.70;;;;;;;13.12;100.00;99158.23;270801;1266;22527;-92
2024/02/28 11:39:40;;;;;;;56.60;33.00;;;;;;;13.24;100.00;99158.20;270689;1266;24503;-91
2024/02/28 11:45:43;;;;;;;55.80;31.20;;;;;;;13.37;100.00;99162.56;270533;1266;22557;-92
2024/02/28 11:51:47;;;;;;;52.60;28.70;;;;;;;13.49;100.00;99157.31;270315;1266;22555;-91
2024/02/28 11:57:50;;;;;;;43.90;25.90;;;;;;;13.60;100.00;99158.60;270483;1267;22575;-92
2024/02/28 12:04:08;;;;;;;44.10;23.60;;;;;;;13.67;100.00;99161.91;270222;1267;22547;-92
2024/02/28 12:10:10;;;;;;;42.40;24.30;;;;;;;13.71;100.00;99159.95;270492;1267;25303;-92
2024/02/28 12:16:13;;;;;;;34.20;22.60;;;;;;;13.75;100.00;99160.73;271043;1257;22559;-92
2024/02/28 12:29:10;;;;;;;40.00;23.90;;;;;;;13.83;100.00;99161.22;264284;1298;544963;-91
2024/02/28 12:35:13;;;;;;;48.20;24.20;;;;;;;13.84;100.00;99158.23;268487;1281;22582;-92
2024/02/28 12:41:18;;;;;;;47.70;24.30;;;;;;;13.86;100.00;99161.60;268865;1279;156086;-91
2024/02/28 12:47:20;;;;;;;55.70;27.50;;;;;;;13.89;100.00;99165.87;268925;1278;23569;-91
2024/02/28 12:53:22;;;;;;;51.50;23.20;;;;;;;13.89;100.00;99168.85;268917;1278;22575;-91
2024/02/28 12:59:25;;;;;;;46.70;21.30;;;;;;;13.87;100.00;99166.41;269214;1275;23272;-92
2024/02/28 13:05:35;;;;;;;34.30;18.80;;;;;;;13.86;100.00;99174.03;269184;1275;22584;-92
2024/02/28 13:11:37;;;;;;;31.30;17.30;;;;;;;13.86;99.14;99177.80;269033;1275;22589;-92
2024/02/28 13:17:41;;;;;;;28.30;17.20;;;;;;;13.81;97.99;99184.48;269250;1277;22592;-91
2024/02/28 13:23:45;;;;;;;33.00;18.40;;;;;;;13.77;98.13;99184.25;269216;1276;22562;-92
2024/02/28 13:29:52;;;;;;;36.00;18.70;;;;;;;13.76;97.95;99182.05;269335;1276;22561;-91
2024/02/28 13:35:58;;;;;;;30.70;17.90;;;;;;;13.76;98.30;99189.67;269370;1274;22890;-92
2024/02/28 13:42:03;;;;;;;31.70;17.40;;;;;;;13.78;98.02;99196.19;269299;1276;22593;-92
2024/02/28 13:48:15;;;;;;;33.20;19.30;;;;;;;13.78;98.07;99195.89;269117;1276;22652;-93
2024/02/28 13:54:17;;;;;;;34.60;20.20;;;;;;;13.76;97.70;99199.66;269101;1275;22564;-93
2024/02/28 14:00:24;;;;;;;37.40;20.50;;;;;;;13.74;97.68;99203.83;269343;1276;23056;-92
2024/02/28 14:06:27;;;;;;;43.80;24.90;;;;;;;13.73;98.31;99199.48;269407;1275;23300;-92
2024/02/28 14:12:29;;;;;;;46.80;27.00;;;;;;;13.71;98.19;99202.86;269435;1276;22580;-92
2024/02/28 14:25:21;;;;;;;50.00;29.60;;;;;;;13.65;98.04;99217.32;262708;1306;547242;-92
2024/02/28 14:31:31;;;;;;;55.50;32.40;;;;;;;13.52;97.67;99221.13;268287;1282;24021;-90
2024/02/28 14:37:36;;;;;;;58.10;34.50;;;;;;;13.35;97.70;99222.25;264508;1278;5294832;-91
2024/02/28 14:43:44;;;;;;;62.00;34.80;;;;;;;13.18;98.11;99227.76;268421;1278;22568;-90
2024/02/28 14:49:47;;;;;;;55.00;34.10;;;;;;;13.01;98.62;99236.69;270444;1268;22504;-91
2024/02/28 14:55:51;;;;;;;57.00;38.00;;;;;;;12.86;99.20;99245.86;270405;1267;22554;-90
2024/02/28 15:01:55;;;;;;;78.60;45.00;;;;;;;12.73;99.58;99250.10;270509;1268;22549;-91
2024/02/28 15:07:57;;;;;;;81.80;49.70;;;;;;;12.59;99.72;99260.05;270172;1269;25249;-91
2024/02/28 15:13:59;;;;;;;78.90;49.20;;;;;;;12.50;99.98;99272.77;270318;1267;22556;-92
2024/02/28 15:20:03;;;;;;;82.10;47.20;;;;;;;12.41;100.00;99266.89;270158;1269;22542;-90
2024/02/28 15:26:07;;;;;;;80.20;47.20;;;;;;;12.31;100.00;99266.50;270442;1269;22544;-92
2024/02/28 15:32:13;;;;;;;76.40;46.40;;;;;;;12.20;100.00;99262.33;270419;1268;22548;-91
2024/02/28 15:38:28;;;;;;;82.00;49.60;;;;;;;12.05;100.00;99268.08;270359;1269;23669;-92
2024/02/28 15:44:32;;;;;;;85.10;50.30;;;;;;;11.82;100.00;99272.61;270329;1268;22543;-92
2024/02/28 15:50:43;;;;;;;76.40;46.00;;;;;;;11.66;100.00;99273.30;270866;1268;22540;-92
2024/02/28 15:56:46;;;;;;;75.50;45.80;;;;;;;11.57;100.00;99277.80;270391;1268;22544;-90
2024/02/28 16:02:59;;;;;;;76.30;46.50;;;;;;;11.50;100.00;99288.60;270235;1268;23657;-92
2024/02/28 16:09:04;;;;;;;85.50;48.90;;;;;;;11.45;100.00;99293.30;270338;1269;22573;-90
2024/02/28 16:15:08;;;;;;;84.90;50.50;;;;;;;11.36;100.00;99294.77;270416;1268;23546;-91
2024/02/28 16:21:17;;;;;;;111.50;58.50;;;;;;;11.31;100.00;99307.48;270343;1268;22604;-91
2024/02/28 16:27:22;;;;;;;116.50;59.70;;;;;;;11.27;100.00;99316.42;269960;1268;23502;-91
2024/02/28 16:33:32;;;;;;;133.00;65.20;;;;;;;11.20;100.00;99317.42;270329;1268;23248;-91
2024/02/28 16:43:11;;;;;;;152.40;73.00;;;;;;;11.05;100.00;99327.08;264459;1299;545614;-92
2024/02/28 16:49:22;;;;;;;170.40;80.70;;;;;;;10.93;100.00;99332.62;267708;1281;23988;-92
2024/02/28 16:55:38;;;;;;;;;;;;;;;;;;;;;
2024/02/28 17:01:50;;;;;;;168.80;77.20;;;;;;;10.75;100.00;99351.73;268436;1279;22557;-92
2024/02/28 17:08:02;;;;;;;189.00;82.70;;;;;;;10.68;100.00;99359.29;267604;1279;22519;-92
2024/02/28 17:14:17;;;;;;;175.30;83.30;;;;;;;10.60;100.00;99368.16;268265;1279;22718;-91
2024/02/28 17:20:31;;;;;;;184.80;82.60;;;;;;;10.54;100.00;99371.56;268279;1278;24274;-91
2024/02/28 17:27:01;;;;;;;176.60;77.50;;;;;;;10.46;100.00;99369.31;267960;1279;23460;-92
2024/02/28 17:39:52;;;;;;;170.60;75.10;;;;;;;10.28;100.00;99372.11;269915;1269;22676;-91
2024/02/28 17:46:19;;;;;;;;;;;;;;;;;;;;;
2024/02/28 17:52:41;;;;;;;155.20;71.60;;;;;;;10.02;100.00;99386.70;270916;1268;23805;-93
2024/02/28 17:59:25;;;;;;;158.60;71.60;;;;;;;9.86;100.00;99390.35;270784;1268;22565;-92
2024/02/28 18:05:38;;;;;;;157.90;71.10;;;;;;;9.74;100.00;99393.31;270553;1266;22496;-91
2024/02/28 18:12:18;;;;;;;156.20;70.50;;;;;;;9.67;100.00;99399.79;270512;1272;23430;-92
2024/02/28 18:18:53;;;;;;;160.60;74.00;;;;;;;9.60;100.00;99403.63;269617;1272;24264;-90
2024/02/28 18:25:10;;;;;;;153.10;69.30;;;;;;;9.54;100.00;99400.23;269803;1272;22572;-91
2024/02/28 18:31:24;;;;;;;153.80;70.50;;;;;;;9.47;100.00;99396.10;270103;1268;22686;-93
2024/02/28 18:37:48;;;;;;;151.40;69.90;;;;;;;9.43;100.00;99398.44;269551;1272;22583;-91
2024/02/28 18:50:54;;;;;;;167.90;74.10;;;;;;;9.37;100.00;99408.45;270335;1265;22576;-93
2024/02/28 18:57:05;;;;;;;161.30;72.30;;;;;;;9.30;100.00;99419.29;270475;1268;23682;-92
2024/02/28 19:03:27;;;;;;;143.00;67.30;;;;;;;9.21;100.00;99424.08;270713;1269;22598;-91
2024/02/28 19:10:05;;;;;;;155.10;69.00;;;;;;;9.13;100.00;99426.38;270756;1269;22612;-91
2024/02/28 19:17:03;;;;;;;148.30;67.20;;;;;;;9.08;100.00;99436.17;270819;1269;27658;-91
2024/02/28 19:23:21;;;;;;;;;;;;;;;;;;;;;
2024/02/28 19:29:42;;;;;;;143.10;65.90;;;;;;;9.05;100.00;99442.52;270526;1269;23576;-93
2024/02/28 19:36:10;;;;;;;151.70;67.00;;;;;;;9.07;100.00;99443.78;271528;1268;22381;-93
2024/02/28 19:42:59;;;;;;;145.80;64.80;;;;;;;9.07;100.00;99441.68;272827;1268;22123;-93
2024/02/28 19:49:10;;;;;;;140.50;63.90;;;;;;;9.08;100.00;99448.05;272220;1269;23437;-93
2024/02/28 19:55:33;;;;;;;133.80;61.30;;;;;;;9.10;100.00;99451.91;271470;1270;23690;-94
2024/02/28 20:01:38;;;;;;;144.50;67.20;;;;;;;9.10;100.00;99453.63;271421;1269;22347;-92
2024/02/28 20:07:50;;;;;;;137.90;65.70;;;;;;;9.08;100.00;99453.36;270903;1268;22891;-93
2024/02/28 20:14:15;;;;;;;145.50;67.70;;;;;;;9.08;100.00;99455.13;270067;1269;22573;-92
2024/02/28 20:20:30;;;;;;;;;;;;;;;;;;;;;
2024/02/28 20:27:01;;;;;;;146.40;68.60;;;;;;;9.07;100.00;99462.38;271251;1269;23439;-92
2024/02/28 20:33:46;;;;;;;149.10;67.50;;;;;;;9.05;100.00;99466.39;270551;1269;22561;-93
2024/02/28 20:40:13;;;;;;;135.00;65.40;;;;;;;9.05;100.00;99472.61;272363;1269;24052;-92
2024/02/28 20:46:36;;;;;;;140.80;66.80;;;;;;;9.06;100.00;99483.66;270907;1269;22674;-91
2024/02/28 20:52:45;;;;;;;;;;;;;;;9.06;100.00;99485.20;270565;1269;23747;-92
2024/02/28 20:58:58;;;;;;;157.30;69.40;;;;;;;9.05;100.00;99487.77;272005;1269;23000;-91
2024/02/28 21:05:06;;;;;;;153.60;67.00;;;;;;;9.03;100.00;99488.48;271900;1268;22637;-91
2024/02/28 21:11:17;;;;;;;140.70;66.50;;;;;;;9.02;100.00;99486.99;270763;1269;23159;-93
2024/02/28 21:17:34;;;;;;;151.00;68.10;;;;;;;8.98;100.00;99488.45;271171;1269;22685;-90
2024/02/28 21:23:45;;;;;;;144.90;66.10;;;;;;;8.95;100.00;99492.26;271542;1269;23242;-91
2024/02/28 21:30:11;;;;;;;142.10;62.80;;;;;;;8.93;100.00;99499.09;272276;1269;22214;-91
2024/02/28 21:36:26;;;;;;;146.80;66.80;;;;;;;8.94;100.00;99496.85;270710;1260;22944;-92
2024/02/28 21:42:29;;;;;;;157.30;68.20;;;;;;;8.94;100.00;99497.72;271125;1269;22289;-91
2024/02/28 21:48:36;;;;;;;142.70;63.60;;;;;;;8.95;100.00;99503.81;273528;1276;23386;-91
2024/02/28 21:54:48;;;;;;;165.80;69.00;;;;;;;8.92;100.00;99500.85;271187;1272;22222;-91
2024/02/28 22:01:01;;;;;;;150.40;64.10;;;;;;;8.88;100.00;99500.59;271870;1273;22238;-92
2024/02/28 22:07:07;;;;;;;156.10;64.60;;;;;;;8.87;100.00;99504.08;271641;1272;22459;-91
2024/02/28 22:13:19;;;;;;;152.20;63.20;;;;;;;8.88;100.00;99507.08;272168;1270;22552;-91
2024/02/28 22:19:29;;;;;;;153.20;63.50;;;;;;;8.88;100.00;99505.75;271634;1271;22230;-91
2024/02/28 22:25:32;;;;;;;149.70;60.90;;;;;;;8.84;100.00;99503.92;270753;1270;22400;-91
2024/02/28 22:31:35;;;;;;;177.40;68.60;;;;;;;8.81;100.00;99505.56;270077;1270;22418;-92
2024/02/28 22:37:50;;;;;;;155.70;64.10;;;;;;;8.79;100.00;99511.52;271007;1270;22674;-92
2024/02/28 22:43:58;;;;;;;172.10;65.20;;;;;;;8.78;100.00;99511.94;270207;1271;23720;-92
2024/02/28 22:50:02;;;;;;;174.50;64.00;;;;;;;8.76;100.00;99515.39;270021;1270;22576;-91
2024/02/28 22:56:14;;;;;;;185.60;64.50;;;;;;;8.73;100.00;99518.14;269601;1271;24350;-92
2024/02/28 23:02:20;;;;;;;191.00;68.00;;;;;;;8.71;100.00;99517.23;270469;1270;22201;-92
2024/02/28 23:08:29;;;;;;;177.40;63.70;;;;;;;8.67;100.00;99517.14;270348;1270;23290;-90
2024/02/28 23:14:39;;;;;;;187.80;62.90;;;;;;;8.66;100.00;99514.52;270883;1270;24480;-92
2024/02/28 23:20:43;;;;;;;185.90;63.60;;;;;;;8.67;100.00;99517.50;270575;1270;23000;-91
2024/02/28 23:26:48;;;;;;;189.90;62.40;;;;;;;8.67;100.00;99513.99;270730;1270;23037;-91
2024/02/28 23:32:55;;;;;;;181.80;61.00;;;;;;;8.68;100.00;99516.36;270819;1270;23692;-93
2024/02/28 23:39:02;;;;;;;182.70;62.40;;;;;;;8.67;100.00;99521.48;269824;1269;23686;-92
2024/02/28 23:45:07;;;;;;;180.30;60.90;;;;;;;8.66;100.00;99516.77;270539;1270;23148;-93
2024/02/28 23:51:10;;;;;;;181.90;58.10;;;;;;;8.65;100.00;99519.64;269964;1270;24222;-92
2024/02/28 23:58:06;;;;;;;162.20;56.70;;;;;;;8.64;100.00;99520.40;272048;1272;22213;-93
